sensor_id;sensor_type;location;lat;lon;timestamp;pressure;altitude;pressure_sealevel;temperature;humidity
59063;BME280;44851;45.648;9.004;2022-09-03T00:01:30;98848.44;;;22.04;53.28
59063;BME280;44851;45.648;9.004;2022-09-03T00:04:09;98852.06;;;22.10;53.10
59063;BME280;44851;45.648;9.004;2022-09-03T00:06:43;98852.69;;;22.12;52.64
59063;BME280;44851;45.648;9.004;2022-09-03T00:09:26;98848.94;;;22.20;52.60
59063;BME280;44851;45.648;9.004;2022-09-03T00:12:16;98852.53;;;22.07;52.87
59063;BME280;44851;45.648;9.004;2022-09-03T00:15:13;98850.38;;;22.16;52.69
59063;BME280;44851;45.648;9.004;2022-09-03T00:17:45;98855.91;;;22.14;52.64
59063;BME280;44851;45.648;9.004;2022-09-03T00:22:46;98853.00;;;22.22;51.90
59063;BME280;44851;45.648;9.004;2022-09-03T00:25:17;98846.66;;;22.23;52.54
59063;BME280;44851;45.648;9.004;2022-09-03T00:27:47;98856.09;;;22.19;52.46
59063;BME280;44851;45.648;9.004;2022-09-03T00:30:16;98854.38;;;22.06;52.45
59063;BME280;44851;45.648;9.004;2022-09-03T00:32:57;98846.19;;;22.26;51.86
59063;BME280;44851;45.648;9.004;2022-09-03T00:38:30;98854.00;;;22.21;51.27
59063;BME280;44851;45.648;9.004;2022-09-03T00:47:01;98856.16;;;22.13;51.71
59063;BME280;44851;45.648;9.004;2022-09-03T00:55:42;98873.38;;;22.03;51.74
59063;BME280;44851;45.648;9.004;2022-09-03T00:58:45;98875.78;;;22.05;51.89
59063;BME280;44851;45.648;9.004;2022-09-03T01:01:20;98883.41;;;22.01;51.86
59063;BME280;44851;45.648;9.004;2022-09-03T01:17:12;98885.25;;;22.01;51.72
59063;BME280;44851;45.648;9.004;2022-09-03T01:25:21;98882.59;;;21.69;52.70
59063;BME280;44851;45.648;9.004;2022-09-03T01:31:04;98882.59;;;21.63;53.20
59063;BME280;44851;45.648;9.004;2022-09-03T01:33:38;98876.59;;;21.49;53.75
59063;BME280;44851;45.648;9.004;2022-09-03T01:36:10;98884.09;;;21.52;53.95
59063;BME280;44851;45.648;9.004;2022-09-03T01:38:49;98880.84;;;21.50;54.05
59063;BME280;44851;45.648;9.004;2022-09-03T01:46:45;98901.31;;;21.43;54.44
59063;BME280;44851;45.648;9.004;2022-09-03T01:49:30;98903.13;;;21.42;54.02
59063;BME280;44851;45.648;9.004;2022-09-03T01:52:16;98913.75;;;21.36;54.17
59063;BME280;44851;45.648;9.004;2022-09-03T01:55:13;98909.66;;;21.40;54.05
59063;BME280;44851;45.648;9.004;2022-09-03T01:57:52;98906.69;;;21.23;54.13
59063;BME280;44851;45.648;9.004;2022-09-03T02:00:20;98911.81;;;21.11;54.42
59063;BME280;44851;45.648;9.004;2022-09-03T02:02:48;98903.22;;;21.22;54.35
59063;BME280;44851;45.648;9.004;2022-09-03T02:05:21;98900.78;;;21.21;54.62
59063;BME280;44851;45.648;9.004;2022-09-03T02:08:01;98900.19;;;21.12;54.98
59063;BME280;44851;45.648;9.004;2022-09-03T02:10:43;98900.41;;;21.04;54.19
59063;BME280;44851;45.648;9.004;2022-09-03T02:13:15;98906.91;;;21.08;54.23
59063;BME280;44851;45.648;9.004;2022-09-03T02:15:44;98903.28;;;20.96;54.25
59063;BME280;44851;45.648;9.004;2022-09-03T02:18:23;98916.13;;;20.99;53.92
59063;BME280;44851;45.648;9.004;2022-09-03T02:20:52;98905.28;;;21.07;54.07
59063;BME280;44851;45.648;9.004;2022-09-03T02:23:18;98915.31;;;21.05;53.94
59063;BME280;44851;45.648;9.004;2022-09-03T02:25:47;98908.53;;;21.09;53.91
59063;BME280;44851;45.648;9.004;2022-09-03T02:28:14;98914.28;;;21.06;54.08
59063;BME280;44851;45.648;9.004;2022-09-03T02:30:41;98917.94;;;21.05;54.28
59063;BME280;44851;45.648;9.004;2022-09-03T02:33:06;98905.06;;;21.09;54.09
59063;BME280;44851;45.648;9.004;2022-09-03T02:35:32;98908.56;;;21.02;53.95
59063;BME280;44851;45.648;9.004;2022-09-03T02:38:15;98905.28;;;21.14;54.02
59063;BME280;44851;45.648;9.004;2022-09-03T02:40:41;98913.25;;;21.07;54.40
59063;BME280;44851;45.648;9.004;2022-09-03T02:43:13;98902.38;;;21.28;53.80
59063;BME280;44851;45.648;9.004;2022-09-03T02:45:46;98905.94;;;20.96;53.93
59063;BME280;44851;45.648;9.004;2022-09-03T02:48:13;98909.97;;;21.12;53.95
59063;BME280;44851;45.648;9.004;2022-09-03T02:50:41;98909.00;;;20.93;54.45
59063;BME280;44851;45.648;9.004;2022-09-03T02:53:06;98904.88;;;21.10;53.95
59063;BME280;44851;45.648;9.004;2022-09-03T02:55:32;98893.66;;;21.08;53.71
59063;BME280;44851;45.648;9.004;2022-09-03T02:57:58;98902.81;;;21.12;53.49
59063;BME280;44851;45.648;9.004;2022-09-03T03:00:25;98905.47;;;21.12;53.15
59063;BME280;44851;45.648;9.004;2022-09-03T03:02:50;98903.66;;;21.13;53.37
59063;BME280;44851;45.648;9.004;2022-09-03T03:05:23;98910.78;;;21.12;53.36
59063;BME280;44851;45.648;9.004;2022-09-03T03:07:51;98906.09;;;21.21;53.50
59063;BME280;44851;45.648;9.004;2022-09-03T03:10:17;98906.09;;;21.14;53.49
59063;BME280;44851;45.648;9.004;2022-09-03T03:12:42;98906.50;;;21.11;53.66
59063;BME280;44851;45.648;9.004;2022-09-03T03:15:07;98897.53;;;21.12;53.75
59063;BME280;44851;45.648;9.004;2022-09-03T03:17:33;98904.88;;;21.10;53.70
59063;BME280;44851;45.648;9.004;2022-09-03T03:19:58;98908.75;;;21.14;53.66
59063;BME280;44851;45.648;9.004;2022-09-03T03:22:24;98909.81;;;21.00;53.41
59063;BME280;44851;45.648;9.004;2022-09-03T03:24:49;98907.56;;;20.97;53.27
59063;BME280;44851;45.648;9.004;2022-09-03T03:27:15;98905.13;;;20.95;52.32
59063;BME280;44851;45.648;9.004;2022-09-03T03:29:40;98900.69;;;20.89;52.64
59063;BME280;44851;45.648;9.004;2022-09-03T03:32:06;98900.06;;;20.81;52.63
59063;BME280;44851;45.648;9.004;2022-09-03T03:34:31;98895.19;;;20.84;52.82
59063;BME280;44851;45.648;9.004;2022-09-03T03:36:56;98894.78;;;20.81;52.26
59063;BME280;44851;45.648;9.004;2022-09-03T03:39:22;98891.09;;;20.82;52.47
59063;BME280;44851;45.648;9.004;2022-09-03T03:41:47;98885.84;;;20.75;51.83
59063;BME280;44851;45.648;9.004;2022-09-03T03:44:12;98881.38;;;20.62;52.35
59063;BME280;44851;45.648;9.004;2022-09-03T03:46:39;98874.81;;;20.71;51.69
59063;BME280;44851;45.648;9.004;2022-09-03T03:49:06;98876.25;;;20.74;51.94
59063;BME280;44851;45.648;9.004;2022-09-03T03:51:32;98875.63;;;20.72;51.85
59063;BME280;44851;45.648;9.004;2022-09-03T03:53:57;98873.84;;;20.72;51.86
59063;BME280;44851;45.648;9.004;2022-09-03T03:56:24;98855.25;;;20.79;51.36
59063;BME280;44851;45.648;9.004;2022-09-03T03:58:50;98854.44;;;20.79;51.15
59063;BME280;44851;45.648;9.004;2022-09-03T04:01:26;98865.88;;;20.66;51.34
59063;BME280;44851;45.648;9.004;2022-09-03T04:03:56;98870.38;;;20.65;51.26
59063;BME280;44851;45.648;9.004;2022-09-03T04:06:22;98868.78;;;20.58;51.19
59063;BME280;44851;45.648;9.004;2022-09-03T04:08:48;98874.03;;;20.64;51.04
59063;BME280;44851;45.648;9.004;2022-09-03T04:11:16;98878.09;;;20.73;50.76
59063;BME280;44851;45.648;9.004;2022-09-03T04:13:43;98871.00;;;20.67;50.72
59063;BME280;44851;45.648;9.004;2022-09-03T04:16:17;98869.53;;;20.71;50.44
59063;BME280;44851;45.648;9.004;2022-09-03T04:18:43;98872.81;;;20.73;50.63
59063;BME280;44851;45.648;9.004;2022-09-03T04:21:09;98872.81;;;20.73;50.58
59063;BME280;44851;45.648;9.004;2022-09-03T04:23:38;98877.28;;;20.73;50.21
59063;BME280;44851;45.648;9.004;2022-09-03T04:26:04;98869.53;;;20.71;50.29
59063;BME280;44851;45.648;9.004;2022-09-03T04:28:31;98869.13;;;20.74;49.71
59063;BME280;44851;45.648;9.004;2022-09-03T04:31:01;98867.53;;;20.60;50.06
59063;BME280;44851;45.648;9.004;2022-09-03T04:33:27;98871.41;;;20.58;50.12
59063;BME280;44851;45.648;9.004;2022-09-03T04:35:52;98871.19;;;20.72;49.45
59063;BME280;44851;45.648;9.004;2022-09-03T04:38:28;98867.34;;;20.62;49.48
59063;BME280;44851;45.648;9.004;2022-09-03T04:40:53;98864.66;;;20.68;48.96
59063;BME280;44851;45.648;9.004;2022-09-03T04:43:18;98866.69;;;20.73;48.99
59063;BME280;44851;45.648;9.004;2022-09-03T04:45:44;98869.97;;;20.68;48.97
59063;BME280;44851;45.648;9.004;2022-09-03T04:48:09;98871.97;;;20.66;48.94
59063;BME280;44851;45.648;9.004;2022-09-03T04:50:36;98875.28;;;20.62;49.20
59063;BME280;44851;45.648;9.004;2022-09-03T04:55:36;98873.19;;;20.84;48.57
59063;BME280;44851;45.648;9.004;2022-09-03T04:58:02;98871.16;;;20.79;48.94
59063;BME280;44851;45.648;9.004;2022-09-03T05:00:27;98865.81;;;20.86;49.07
59063;BME280;44851;45.648;9.004;2022-09-03T05:02:53;98861.78;;;20.76;49.00
59063;BME280;44851;45.648;9.004;2022-09-03T05:05:18;98862.22;;;20.73;49.23
59063;BME280;44851;45.648;9.004;2022-09-03T05:07:44;98868.06;;;20.89;49.25
59063;BME280;44851;45.648;9.004;2022-09-03T05:10:11;98871.91;;;20.93;49.98
59063;BME280;44851;45.648;9.004;2022-09-03T05:12:40;98882.13;;;20.83;50.44
59063;BME280;44851;45.648;9.004;2022-09-03T05:15:06;98876.25;;;20.74;49.94
59063;BME280;44851;45.648;9.004;2022-09-03T05:17:31;98874.00;;;20.77;50.43
59063;BME280;44851;45.648;9.004;2022-09-03T05:19:57;98871.56;;;20.76;50.11
59063;BME280;44851;45.648;9.004;2022-09-03T05:22:22;98879.28;;;20.84;50.14
59063;BME280;44851;45.648;9.004;2022-09-03T05:24:48;98873.63;;;20.67;49.57
59063;BME280;44851;45.648;9.004;2022-09-03T05:27:15;98866.25;;;20.76;49.67
59063;BME280;44851;45.648;9.004;2022-09-03T05:29:43;98867.06;;;20.76;49.90
59063;BME280;44851;45.648;9.004;2022-09-03T05:32:10;98866.22;;;20.83;49.82
59063;BME280;44851;45.648;9.004;2022-09-03T05:34:36;98871.16;;;20.79;49.68
59063;BME280;44851;45.648;9.004;2022-09-03T05:37:02;98881.31;;;20.82;50.07
59063;BME280;44851;45.648;9.004;2022-09-03T05:39:27;98875.84;;;20.84;50.05
59063;BME280;44851;45.648;9.004;2022-09-03T05:41:52;98887.84;;;20.86;50.21
59063;BME280;44851;45.648;9.004;2022-09-03T05:44:18;98892.69;;;20.96;50.42
59063;BME280;44851;45.648;9.004;2022-09-03T05:46:47;98893.72;;;20.95;49.65
59063;BME280;44851;45.648;9.004;2022-09-03T05:49:13;98903.28;;;20.96;49.80
59063;BME280;44851;45.648;9.004;2022-09-03T05:51:38;98901.06;;;20.93;49.63
59063;BME280;44851;45.648;9.004;2022-09-03T05:54:04;98907.78;;;20.95;50.39
59063;BME280;44851;45.648;9.004;2022-09-03T05:56:31;98909.81;;;21.00;50.25
59063;BME280;44851;45.648;9.004;2022-09-03T05:59:01;98912.47;;;21.00;50.08
59063;BME280;44851;45.648;9.004;2022-09-03T06:01:33;98912.28;;;20.95;50.69
59063;BME280;44851;45.648;9.004;2022-09-03T06:04:16;98912.88;;;20.97;50.45
59063;BME280;44851;45.648;9.004;2022-09-03T06:06:44;98914.13;;;20.94;51.05
59063;BME280;44851;45.648;9.004;2022-09-03T06:09:12;98911.84;;;20.98;51.32
59063;BME280;44851;45.648;9.004;2022-09-03T06:11:38;98912.03;;;21.03;51.77
59063;BME280;44851;45.648;9.004;2022-09-03T06:14:06;98906.56;;;20.91;52.55
59063;BME280;44851;45.648;9.004;2022-09-03T06:16:38;98906.97;;;20.95;52.03
59063;BME280;44851;45.648;9.004;2022-09-03T06:19:04;98899.25;;;20.87;53.06
59063;BME280;44851;45.648;9.004;2022-09-03T06:21:34;98891.84;;;21.02;52.18
59063;BME280;44851;45.648;9.004;2022-09-03T06:24:01;98899.41;;;21.05;52.68
59063;BME280;44851;45.648;9.004;2022-09-03T06:26:27;98898.56;;;21.11;52.43
59063;BME280;44851;45.648;9.004;2022-09-03T06:28:53;98894.50;;;21.02;53.13
59063;BME280;44851;45.648;9.004;2022-09-03T06:31:19;98889.41;;;21.07;51.75
59063;BME280;44851;45.648;9.004;2022-09-03T06:33:46;98897.97;;;21.16;51.36
59063;BME280;44851;45.648;9.004;2022-09-03T06:36:14;98909.13;;;21.24;50.83
59063;BME280;44851;45.648;9.004;2022-09-03T06:38:41;98905.22;;;21.34;50.97
59063;BME280;44851;45.648;9.004;2022-09-03T06:41:12;98907.28;;;21.25;51.10
59063;BME280;44851;45.648;9.004;2022-09-03T06:43:39;98897.50;;;21.25;50.89
59063;BME280;44851;45.648;9.004;2022-09-03T06:46:11;98905.44;;;21.25;50.03
59063;BME280;44851;45.648;9.004;2022-09-03T06:48:38;98904.63;;;21.25;50.07
59063;BME280;44851;45.648;9.004;2022-09-03T06:51:06;98899.09;;;21.33;49.18
59063;BME280;44851;45.648;9.004;2022-09-03T06:53:43;98892.63;;;21.22;49.28
59063;BME280;44851;45.648;9.004;2022-09-03T06:56:11;98897.50;;;21.25;50.81
59063;BME280;44851;45.648;9.004;2022-09-03T06:58:42;98900.28;;;21.44;49.34
59063;BME280;44851;45.648;9.004;2022-09-03T07:01:16;98894.59;;;21.34;49.24
59063;BME280;44851;45.648;9.004;2022-09-03T07:03:42;98885.56;;;21.48;50.41
59063;BME280;44851;45.648;9.004;2022-09-03T07:06:13;98888.75;;;21.63;49.04
59063;BME280;44851;45.648;9.004;2022-09-03T07:08:39;98887.72;;;21.64;50.06
59063;BME280;44851;45.648;9.004;2022-09-03T07:11:08;98894.06;;;21.63;49.90
59063;BME280;44851;45.648;9.004;2022-09-03T07:13:35;98899.94;;;21.65;47.88
59063;BME280;44851;45.648;9.004;2022-09-03T07:16:04;98899.78;;;21.60;48.35
59063;BME280;44851;45.648;9.004;2022-09-03T07:18:30;98893.03;;;21.64;48.56
59063;BME280;44851;45.648;9.004;2022-09-03T07:21:04;98897.28;;;21.65;48.75
59063;BME280;44851;45.648;9.004;2022-09-03T07:23:30;98890.78;;;21.61;49.62
59063;BME280;44851;45.648;9.004;2022-09-03T07:25:58;98887.88;;;21.69;48.71
59063;BME280;44851;45.648;9.004;2022-09-03T07:28:24;98889.13;;;21.67;48.02
59063;BME280;44851;45.648;9.004;2022-09-03T07:30:51;98898.69;;;21.68;48.43
59063;BME280;44851;45.648;9.004;2022-09-03T07:33:17;98905.38;;;21.77;47.30
59063;BME280;44851;45.648;9.004;2022-09-03T07:35:44;98907.75;;;21.92;46.04
59063;BME280;44851;45.648;9.004;2022-09-03T07:38:10;98904.88;;;21.93;46.61
59063;BME280;44851;45.648;9.004;2022-09-03T07:40:36;98917.28;;;21.99;47.24
59063;BME280;44851;45.648;9.004;2022-09-03T07:43:03;98916.81;;;22.09;48.38
59063;BME280;44851;45.648;9.004;2022-09-03T07:45:30;98908.44;;;22.12;47.23
59063;BME280;44851;45.648;9.004;2022-09-03T07:47:55;98910.97;;;22.25;46.61
59063;BME280;44851;45.648;9.004;2022-09-03T07:50:21;98915.56;;;22.37;47.43
59063;BME280;44851;45.648;9.004;2022-09-03T07:52:46;98914.00;;;22.29;46.77
59063;BME280;44851;45.648;9.004;2022-09-03T07:55:12;98919.69;;;22.32;45.29
59063;BME280;44851;45.648;9.004;2022-09-03T07:57:38;98926.63;;;22.33;45.65
59063;BME280;44851;45.648;9.004;2022-09-03T08:00:05;98928.75;;;22.25;44.91
59063;BME280;44851;45.648;9.004;2022-09-03T08:02:34;98925.97;;;22.13;45.72
59063;BME280;44851;45.648;9.004;2022-09-03T08:04:59;98929.38;;;22.20;46.04
59063;BME280;44851;45.648;9.004;2022-09-03T08:07:25;98920.59;;;22.20;45.46
59063;BME280;44851;45.648;9.004;2022-09-03T08:09:52;98931.13;;;22.33;46.69
59063;BME280;44851;45.648;9.004;2022-09-03T08:12:17;98932.44;;;22.49;45.37
59063;BME280;44851;45.648;9.004;2022-09-03T08:14:43;98931.38;;;22.50;46.22
59063;BME280;44851;45.648;9.004;2022-09-03T08:17:08;98942.69;;;22.89;45.24
59063;BME280;44851;45.648;9.004;2022-09-03T08:19:36;98945.22;;;23.02;45.23
59063;BME280;44851;45.648;9.004;2022-09-03T08:22:01;98945.66;;;22.99;44.91
59063;BME280;44851;45.648;9.004;2022-09-03T08:24:27;98951.25;;;22.91;43.11
59063;BME280;44851;45.648;9.004;2022-09-03T08:26:52;98951.78;;;22.99;45.62
59063;BME280;44851;45.648;9.004;2022-09-03T08:29:18;98955.16;;;23.06;44.68
59063;BME280;44851;45.648;9.004;2022-09-03T08:31:44;98954.78;;;23.21;43.89
59063;BME280;44851;45.648;9.004;2022-09-03T08:34:09;98954.69;;;23.34;43.04
59063;BME280;44851;45.648;9.004;2022-09-03T08:36:37;98950.00;;;23.48;43.05
59063;BME280;44851;45.648;9.004;2022-09-03T08:39:07;98953.97;;;23.57;43.08
59063;BME280;44851;45.648;9.004;2022-09-03T08:45:11;98967.94;;;23.53;42.93
59063;BME280;44851;45.648;9.004;2022-09-03T08:47:06;98962.56;;;23.23;43.62
59063;BME280;44851;45.648;9.004;2022-09-03T08:54:59;98981.56;;;23.26;42.50
59063;BME280;44851;45.648;9.004;2022-09-03T08:57:31;98989.97;;;23.23;42.68
59063;BME280;44851;45.648;9.004;2022-09-03T09:00:00;98991.03;;;23.41;41.68
59063;BME280;44851;45.648;9.004;2022-09-03T09:05:16;98991.28;;;23.14;42.13
59063;BME280;44851;45.648;9.004;2022-09-03T09:10:40;98991.28;;;23.14;42.65
59063;BME280;44851;45.648;9.004;2022-09-03T09:13:31;98996.09;;;23.24;42.23
59063;BME280;44851;45.648;9.004;2022-09-03T09:16:27;98997.66;;;23.31;41.07
59063;BME280;44851;45.648;9.004;2022-09-03T09:19:49;99001.47;;;23.17;40.19
59063;BME280;44851;45.648;9.004;2022-09-03T09:21:52;98993.63;;;23.29;40.52
59063;BME280;44851;45.648;9.004;2022-09-03T09:24:35;98992.66;;;23.42;40.93
59063;BME280;44851;45.648;9.004;2022-09-03T09:27:04;98992.34;;;23.31;39.99
59063;BME280;44851;45.648;9.004;2022-09-03T09:29:37;98992.44;;;23.25;39.60
59063;BME280;44851;45.648;9.004;2022-09-03T09:32:03;98991.88;;;23.16;40.23
59063;BME280;44851;45.648;9.004;2022-09-03T09:34:35;98981.84;;;23.18;40.40
59063;BME280;44851;45.648;9.004;2022-09-03T09:37:03;98984.22;;;23.26;41.13
59063;BME280;44851;45.648;9.004;2022-09-03T09:39:30;98978.81;;;23.33;40.70
59063;BME280;44851;45.648;9.004;2022-09-03T09:42:00;98978.38;;;23.36;41.01
59063;BME280;44851;45.648;9.004;2022-09-03T09:44:32;98983.47;;;23.56;40.25
59063;BME280;44851;45.648;9.004;2022-09-03T09:47:06;98983.53;;;23.68;40.14
59063;BME280;44851;45.648;9.004;2022-09-03T09:49:36;98987.00;;;23.68;39.93
59063;BME280;44851;45.648;9.004;2022-09-03T09:52:10;98978.25;;;23.79;41.00
59063;BME280;44851;45.648;9.004;2022-09-03T09:54:36;98976.88;;;23.88;38.89
59063;BME280;44851;45.648;9.004;2022-09-03T09:57:13;98982.13;;;24.25;37.84
59063;BME280;44851;45.648;9.004;2022-09-03T09:59:42;98981.56;;;24.47;37.42
59063;BME280;44851;45.648;9.004;2022-09-03T10:02:18;98986.59;;;24.67;37.23
59063;BME280;44851;45.648;9.004;2022-09-03T10:04:44;98987.88;;;24.99;37.74
59063;BME280;44851;45.648;9.004;2022-09-03T10:07:31;98989.03;;;24.80;36.44
59063;BME280;44851;45.648;9.004;2022-09-03T10:10:26;98994.78;;;24.53;37.04
59063;BME280;44851;45.648;9.004;2022-09-03T10:13:21;98999.81;;;24.73;37.36
59063;BME280;44851;45.648;9.004;2022-09-03T10:16:00;99000.72;;;24.90;36.64
59063;BME280;44851;45.648;9.004;2022-09-03T10:18:47;98992.69;;;24.55;36.31
59063;BME280;44851;45.648;9.004;2022-09-03T10:21:23;98991.69;;;24.68;37.68
59063;BME280;44851;45.648;9.004;2022-09-03T10:23:58;98995.50;;;24.60;37.47
59063;BME280;44851;45.648;9.004;2022-09-03T10:26:24;98991.63;;;24.45;37.85
59063;BME280;44851;45.648;9.004;2022-09-03T10:28:59;99001.22;;;24.34;38.71
59063;BME280;44851;45.648;9.004;2022-09-03T10:37:05;98996.13;;;24.21;39.20
59063;BME280;44851;45.648;9.004;2022-09-03T10:50:47;99008.94;;;24.12;38.61
59063;BME280;44851;45.648;9.004;2022-09-03T11:07:07;98991.16;;;24.24;39.35
59063;BME280;44851;45.648;9.004;2022-09-03T11:09:44;98993.97;;;24.53;40.55
59063;BME280;44851;45.648;9.004;2022-09-03T11:12:19;98999.06;;;24.43;39.13
59063;BME280;44851;45.648;9.004;2022-09-03T11:17:48;99003.47;;;24.49;40.11
59063;BME280;44851;45.648;9.004;2022-09-03T11:20:17;98994.91;;;24.47;38.76
59063;BME280;44851;45.648;9.004;2022-09-03T11:22:44;98998.00;;;24.44;39.22
59063;BME280;44851;45.648;9.004;2022-09-03T11:25:12;98990.00;;;24.55;40.58
59063;BME280;44851;45.648;9.004;2022-09-03T11:30:10;98980.78;;;24.58;39.75
59063;BME280;44851;45.648;9.004;2022-09-03T11:35:16;98980.31;;;24.61;38.85
59063;BME280;44851;45.648;9.004;2022-09-03T11:37:58;98980.06;;;24.51;39.35
59063;BME280;44851;45.648;9.004;2022-09-03T11:40:32;98976.28;;;24.94;38.11
59063;BME280;44851;45.648;9.004;2022-09-03T11:43:06;98979.13;;;25.04;37.13
59063;BME280;44851;45.648;9.004;2022-09-03T11:47:57;98969.03;;;26.15;37.72
59063;BME280;44851;45.648;9.004;2022-09-03T11:50:31;98964.69;;;26.42;37.54
59063;BME280;44851;45.648;9.004;2022-09-03T11:58:31;98972.47;;;26.99;35.29
59063;BME280;44851;45.648;9.004;2022-09-03T12:01:01;98972.63;;;26.37;36.75
59063;BME280;44851;45.648;9.004;2022-09-03T12:03:29;98974.72;;;26.35;37.33
59063;BME280;44851;45.648;9.004;2022-09-03T12:14:22;98968.59;;;26.52;35.61
59063;BME280;44851;45.648;9.004;2022-09-03T12:17:32;98961.88;;;26.49;34.72
59063;BME280;44851;45.648;9.004;2022-09-03T12:19:52;98960.31;;;26.70;35.63
59063;BME280;44851;45.648;9.004;2022-09-03T12:22:21;98958.69;;;26.35;35.07
59063;BME280;44851;45.648;9.004;2022-09-03T12:24:47;98963.31;;;26.23;34.86
59063;BME280;44851;45.648;9.004;2022-09-03T12:27:27;98955.75;;;26.03;36.27
59063;BME280;44851;45.648;9.004;2022-09-03T12:29:59;98954.78;;;26.26;36.88
59063;BME280;44851;45.648;9.004;2022-09-03T12:32:31;98951.00;;;26.22;35.75
59063;BME280;44851;45.648;9.004;2022-09-03T12:35:14;98953.50;;;26.62;34.89
59063;BME280;44851;45.648;9.004;2022-09-03T12:37:42;98948.91;;;27.13;35.44
59063;BME280;44851;45.648;9.004;2022-09-03T12:40:21;98942.78;;;27.62;34.06
59063;BME280;44851;45.648;9.004;2022-09-03T12:42:47;98936.69;;;27.44;34.21
59063;BME280;44851;45.648;9.004;2022-09-03T12:45:14;98934.31;;;27.75;34.07
59063;BME280;44851;45.648;9.004;2022-09-03T12:47:41;98939.56;;;27.65;33.18
59063;BME280;44851;45.648;9.004;2022-09-03T12:50:10;98942.31;;;27.70;33.61
59063;BME280;44851;45.648;9.004;2022-09-03T12:52:40;98935.06;;;27.65;33.42
59063;BME280;44851;45.648;9.004;2022-09-03T12:58:18;98931.81;;;27.41;32.58
59063;BME280;44851;45.648;9.004;2022-09-03T13:00:53;98929.03;;;27.58;34.36
59063;BME280;44851;45.648;9.004;2022-09-03T13:03:33;98934.00;;;27.66;33.36
59063;BME280;44851;45.648;9.004;2022-09-03T13:06:08;98935.41;;;27.52;33.16
59063;BME280;44851;45.648;9.004;2022-09-03T13:08:49;98922.41;;;27.61;34.11
59063;BME280;44851;45.648;9.004;2022-09-03T13:11:19;98923.47;;;27.60;34.06
59063;BME280;44851;45.648;9.004;2022-09-03T13:14:00;98925.69;;;27.68;33.57
59063;BME280;44851;45.648;9.004;2022-09-03T13:22:16;98918.34;;;27.58;34.00
59063;BME280;44851;45.648;9.004;2022-09-03T13:27:57;98918.91;;;26.94;35.26
59063;BME280;44851;45.648;9.004;2022-09-03T13:31:02;98915.66;;;27.09;35.13
59063;BME280;44851;45.648;9.004;2022-09-03T13:33:56;98917.50;;;26.87;35.73
59063;BME280;44851;45.648;9.004;2022-09-03T13:39:45;98914.88;;;26.70;36.22
59063;BME280;44851;45.648;9.004;2022-09-03T13:42:54;98917.31;;;26.55;36.71
59063;BME280;44851;45.648;9.004;2022-09-03T13:48:08;98913.13;;;26.59;36.13
59063;BME280;44851;45.648;9.004;2022-09-03T14:02:06;98904.47;;;27.12;35.47
59063;BME280;44851;45.648;9.004;2022-09-03T14:04:48;98893.16;;;27.32;35.03
59063;BME280;44851;45.648;9.004;2022-09-03T14:07:33;98897.31;;;27.18;36.17
59063;BME280;44851;45.648;9.004;2022-09-03T14:21:20;98895.53;;;26.29;37.62
59063;BME280;44851;45.648;9.004;2022-09-03T14:24:13;98892.78;;;26.24;38.12
59063;BME280;44851;45.648;9.004;2022-09-03T14:26:55;98888.06;;;26.31;38.19
59063;BME280;44851;45.648;9.004;2022-09-03T14:29:27;98886.38;;;26.25;38.21
59063;BME280;44851;45.648;9.004;2022-09-03T14:32:13;98883.88;;;26.35;38.21
59063;BME280;44851;45.648;9.004;2022-09-03T14:48:38;98873.09;;;26.30;38.83
59063;BME280;44851;45.648;9.004;2022-09-03T14:51:17;98881.63;;;26.27;39.32
59063;BME280;44851;45.648;9.004;2022-09-03T14:54:29;98874.31;;;26.39;38.06
59063;BME280;44851;45.648;9.004;2022-09-03T14:57:21;98883.31;;;26.33;38.14
59063;BME280;44851;45.648;9.004;2022-09-03T15:02:49;98879.25;;;26.31;37.85
59063;BME280;44851;45.648;9.004;2022-09-03T15:05:48;98877.72;;;26.18;38.86
59063;BME280;44851;45.648;9.004;2022-09-03T15:10:53;98871.09;;;26.04;38.61
59063;BME280;44851;45.648;9.004;2022-09-03T15:13:23;98876.25;;;26.10;39.55
59063;BME280;44851;45.648;9.004;2022-09-03T15:24:52;98854.25;;;26.03;39.13
59063;BME280;44851;45.648;9.004;2022-09-03T15:32:58;98852.66;;;25.85;38.61
59063;BME280;44851;45.648;9.004;2022-09-03T15:40:53;98852.66;;;25.85;39.83
59063;BME280;44851;45.648;9.004;2022-09-03T15:43:27;98852.31;;;25.99;39.94
59063;BME280;44851;45.648;9.004;2022-09-03T15:48:44;98837.78;;;25.89;39.45
59063;BME280;44851;45.648;9.004;2022-09-03T15:51:25;98848.38;;;26.01;40.47
59063;BME280;44851;45.648;9.004;2022-09-03T15:53:58;98845.38;;;25.98;40.41
59063;BME280;44851;45.648;9.004;2022-09-03T15:56:33;98843.75;;;25.97;40.74
59063;BME280;44851;45.648;9.004;2022-09-03T16:02:06;98851.44;;;25.93;39.81
59063;BME280;44851;45.648;9.004;2022-09-03T16:10:15;98855.31;;;25.85;41.21
59063;BME280;44851;45.648;9.004;2022-09-03T16:13:01;98856.28;;;25.79;40.38
59063;BME280;44851;45.648;9.004;2022-09-03T16:15:35;98863.59;;;25.72;39.55
59063;BME280;44851;45.648;9.004;2022-09-03T16:18:14;98867.50;;;25.81;40.39
59063;BME280;44851;45.648;9.004;2022-09-03T16:20:51;98865.16;;;25.68;39.94
59063;BME280;44851;45.648;9.004;2022-09-03T16:23:30;98872.34;;;25.67;40.61
59063;BME280;44851;45.648;9.004;2022-09-03T16:26:07;98872.56;;;25.49;40.26
59063;BME280;44851;45.648;9.004;2022-09-03T16:28:42;98874.28;;;25.72;40.84
59063;BME280;44851;45.648;9.004;2022-09-03T16:42:06;98876.47;;;25.75;40.43
59063;BME280;44851;45.648;9.004;2022-09-03T16:59:01;98878.91;;;25.31;40.82
59063;BME280;44851;45.648;9.004;2022-09-03T17:04:07;98882.50;;;25.37;41.26
59063;BME280;44851;45.648;9.004;2022-09-03T17:07:03;98886.91;;;25.31;41.08
59063;BME280;44851;45.648;9.004;2022-09-03T17:15:45;98880.56;;;25.09;41.03
59063;BME280;44851;45.648;9.004;2022-09-03T17:23:59;98883.13;;;25.04;41.36
59063;BME280;44851;45.648;9.004;2022-09-03T17:32:45;98888.34;;;25.10;41.66
59063;BME280;44851;45.648;9.004;2022-09-03T17:35:16;98890.09;;;25.05;41.16
59063;BME280;44851;45.648;9.004;2022-09-03T17:37:54;98884.63;;;25.11;42.25